Time;durP1;ratioP1;P1;durP2;ratioP2;P2;SDS_P1;SDS_P2;PMS_P1;PMS_P2;Temp;Humidity;BMP_temperature;BMP_pressure;BME280_temperature;BME280_humidity;BME280_pressure;Samples;Min_cycle;Max_cycle;Signal;HPM_P1;HPM_P2
2022/03/20 00:00:33;;;;;;;11.93;8.07;;;11.90;96.70;;;;;;5006085;28;20065;-81
2022/03/20 00:03:09;;;;;;;13.38;8.50;;;11.80;96.70;;;;;;4975065;28;20050;-82
2022/03/20 00:05:39;;;;;;;10.85;8.00;;;11.90;96.70;;;;;;4992652;28;20450;-86
2022/03/20 00:08:09;;;;;;;12.05;8.07;;;12.00;96.70;;;;;;4975571;28;20559;-86
2022/03/20 00:10:40;;;;;;;11.27;7.82;;;11.90;96.70;;;;;;5007085;28;20046;-86
2022/03/20 00:13:10;;;;;;;14.82;7.97;;;11.90;96.70;;;;;;4971594;28;20100;-86
2022/03/20 00:15:41;;;;;;;11.38;7.45;;;11.80;96.70;;;;;;4969100;28;20093;-86
2022/03/20 00:18:12;;;;;;;9.77;7.40;;;11.80;96.70;;;;;;5007796;28;20093;-86
2022/03/20 00:20:42;;;;;;;10.25;7.55;;;11.90;96.70;;;;;;5009777;28;20065;-86
2022/03/20 00:23:12;;;;;;;12.32;7.65;;;12.00;96.70;;;;;;5003671;28;20768;-85
2022/03/20 00:25:42;;;;;;;10.85;7.28;;;12.00;96.70;;;;;;5020862;28;20378;-86
2022/03/20 00:28:12;;;;;;;11.25;7.40;;;12.00;96.70;;;;;;4971142;28;20043;-85
2022/03/20 00:30:41;;;;;;;9.23;6.82;;;11.80;96.70;;;;;;4977938;28;20062;-87
2022/03/20 00:33:10;;;;;;;9.20;7.32;;;11.60;96.70;;;;;;4989973;28;20034;-86
2022/03/20 00:35:39;;;;;;;7.93;6.70;;;11.70;96.70;;;;;;4979362;28;20057;-85
2022/03/20 00:38:08;;;;;;;10.43;7.07;;;11.80;96.70;;;;;;4993619;28;20079;-84
2022/03/20 00:40:37;;;;;;;10.75;6.95;;;11.90;96.70;;;;;;4977179;28;20046;-86
2022/03/20 00:43:06;;;;;;;8.80;6.20;;;11.90;96.70;;;;;;4991455;28;20042;-83
2022/03/20 00:45:36;;;;;;;8.65;6.55;;;12.00;96.70;;;;;;4974539;28;20077;-86
2022/03/20 00:48:07;;;;;;;9.38;6.13;;;12.00;96.70;;;;;;4996057;28;20078;-87
2022/03/20 00:50:37;;;;;;;8.93;6.10;;;12.00;96.70;;;;;;5023529;28;20054;-86
2022/03/20 00:53:05;;;;;;;8.73;6.13;;;12.10;96.70;;;;;;5008739;28;20331;-86
2022/03/20 00:55:34;;;;;;;7.80;5.78;;;12.00;96.70;;;;;;4979013;28;20042;-86
2022/03/20 00:58:02;;;;;;;8.10;6.07;;;12.10;96.70;;;;;;5010821;28;20050;-87
2022/03/20 01:00:32;;;;;;;8.77;5.97;;;12.10;96.70;;;;;;4995845;28;20078;-86
2022/03/20 01:03:02;;;;;;;8.68;5.30;;;12.10;96.70;;;;;;5007445;28;20133;-86
2022/03/20 01:05:31;;;;;;;10.70;5.90;;;12.00;96.70;;;;;;5007352;28;20595;-86
2022/03/20 01:08:02;;;;;;;6.45;5.07;;;12.10;96.70;;;;;;4998622;28;20049;-86
2022/03/20 01:10:36;;;;;;;10.05;6.07;;;12.20;96.70;;;;;;4979337;28;20051;-86
2022/03/20 01:13:04;;;;;;;9.02;5.97;;;12.10;96.70;;;;;;4976307;28;20133;-86
2022/03/20 01:15:33;;;;;;;9.90;4.93;;;12.10;96.70;;;;;;5006612;28;20050;-86
2022/03/20 01:18:02;;;;;;;8.45;4.93;;;12.10;96.70;;;;;;4990697;28;20039;-86
2022/03/20 01:20:30;;;;;;;6.93;5.13;;;12.20;96.70;;;;;;4975207;28;20058;-85
2022/03/20 01:23:00;;;;;;;9.98;5.18;;;12.20;96.70;;;;;;4994895;28;20046;-86
2022/03/20 01:25:30;;;;;;;5.55;4.68;;;12.20;96.70;;;;;;5006436;28;20106;-86
2022/03/20 01:27:58;;;;;;;6.90;4.90;;;12.20;96.70;;;;;;5006505;28;20136;-86
2022/03/20 01:30:26;;;;;;;6.88;4.82;;;12.20;96.70;;;;;;4979716;28;20476;-85
2022/03/20 01:32:55;;;;;;;6.05;5.05;;;12.20;96.70;;;;;;5012639;28;20125;-86
2022/03/20 01:35:23;;;;;;;6.35;4.35;;;12.10;96.70;;;;;;4992107;28;20052;-86
2022/03/20 01:37:52;;;;;;;7.47;5.07;;;12.10;96.70;;;;;;4996035;28;20066;-87
2022/03/20 01:40:22;;;;;;;6.45;4.72;;;12.10;96.70;;;;;;4990612;28;20042;-87
2022/03/20 01:42:50;;;;;;;6.97;4.53;;;12.20;96.70;;;;;;4975471;28;20065;-86
2022/03/20 01:45:20;;;;;;;8.35;4.97;;;12.20;96.70;;;;;;4988682;28;20042;-86
2022/03/20 01:47:50;;;;;;;6.35;4.88;;;12.20;96.70;;;;;;5022626;28;20057;-87
2022/03/20 01:50:20;;;;;;;8.60;5.25;;;12.30;96.70;;;;;;4976616;28;20420;-87
2022/03/20 01:52:50;;;;;;;6.13;4.63;;;12.20;96.70;;;;;;4976769;28;20169;-85
2022/03/20 01:55:21;;;;;;;6.85;4.50;;;12.20;96.70;;;;;;4990374;28;20180;-88
2022/03/20 01:57:50;;;;;;;7.25;4.80;;;12.20;96.70;;;;;;5009649;28;20038;-87
2022/03/20 02:00:20;;;;;;;5.35;4.25;;;12.20;96.70;;;;;;4988743;28;20046;-86
2022/03/20 02:02:48;;;;;;;7.68;4.95;;;12.20;96.70;;;;;;5004417;28;20504;-87
2022/03/20 02:05:17;;;;;;;5.68;4.57;;;12.20;96.70;;;;;;4991697;28;20077;-87
2022/03/20 02:07:47;;;;;;;6.80;4.55;;;12.20;96.70;;;;;;5005984;28;20046;-86
2022/03/20 02:10:16;;;;;;;7.15;4.63;;;12.20;96.70;;;;;;4995006;28;20488;-85
2022/03/20 02:12:46;;;;;;;6.13;4.45;;;12.20;96.70;;;;;;4993722;28;20514;-86
2022/03/20 02:15:20;;;;;;;5.68;4.60;;;12.20;96.70;;;;;;4974211;28;20045;-87
2022/03/20 02:17:50;;;;;;;8.55;5.45;;;12.20;96.70;;;;;;5000407;28;20137;-86
2022/03/20 02:20:19;;;;;;;6.75;4.55;;;12.10;96.70;;;;;;4991547;28;20108;-86
2022/03/20 02:22:50;;;;;;;6.97;4.50;;;12.10;96.70;;;;;;4999318;28;20038;-87
2022/03/20 02:25:19;;;;;;;7.82;5.22;;;12.10;96.70;;;;;;4995719;28;20054;-85
2022/03/20 02:27:47;;;;;;;6.20;4.80;;;12.10;96.70;;;;;;4991823;28;20081;-84
2022/03/20 02:30:18;;;;;;;6.38;4.90;;;12.00;96.70;;;;;;5016859;28;20054;-86
2022/03/20 02:32:48;;;;;;;6.35;4.20;;;12.00;96.70;;;;;;4978821;28;20057;-85
2022/03/20 02:35:18;;;;;;;6.10;4.55;;;12.00;96.70;;;;;;4991347;28;20059;-86
2022/03/20 02:37:50;;;;;;;5.45;3.97;;;12.00;96.70;;;;;;4990129;28;20415;-87
2022/03/20 02:40:21;;;;;;;7.32;4.82;;;11.90;96.70;;;;;;4990761;28;20055;-85
2022/03/20 02:42:51;;;;;;;6.63;4.72;;;11.90;96.70;;;;;;5008014;28;20128;-87
2022/03/20 02:45:21;;;;;;;6.60;4.30;;;11.90;96.70;;;;;;4989131;28;20046;-84
2022/03/20 02:47:51;;;;;;;7.07;4.20;;;11.90;96.70;;;;;;4996732;28;20045;-85
2022/03/20 02:50:21;;;;;;;7.38;4.97;;;11.90;96.70;;;;;;4981396;28;20050;-85
2022/03/20 02:52:52;;;;;;;6.57;4.63;;;11.90;96.70;;;;;;5024663;28;20050;-85
2022/03/20 02:55:22;;;;;;;6.60;4.43;;;11.90;96.70;;;;;;4982255;28;20046;-85
2022/03/20 02:57:52;;;;;;;5.68;4.20;;;11.80;96.70;;;;;;4988092;28;20047;-85
2022/03/20 03:00:22;;;;;;;5.60;4.57;;;11.80;96.70;;;;;;4988324;28;20049;-86
2022/03/20 03:02:52;;;;;;;7.53;4.38;;;11.80;96.70;;;;;;4989904;28;20046;-85
2022/03/20 03:05:22;;;;;;;7.53;5.10;;;11.70;96.70;;;;;;4992984;28;20566;-86
2022/03/20 03:10:57;;;;;;;5.95;4.00;;;11.80;96.70;;;;;;4989462;28;20054;-86
2022/03/20 03:13:29;;;;;;;5.40;4.13;;;11.70;96.70;;;;;;4989593;28;20046;-85
2022/03/20 03:16:01;;;;;;;4.72;3.83;;;11.70;96.70;;;;;;4980424;28;20046;-85
2022/03/20 03:18:29;;;;;;;7.93;4.53;;;11.60;96.70;;;;;;4973904;28;20042;-86
2022/03/20 03:20:59;;;;;;;5.82;4.47;;;11.60;96.70;;;;;;4991151;28;20046;-85
2022/03/20 03:23:29;;;;;;;5.85;4.72;;;11.60;96.70;;;;;;4989888;28;20361;-85
2022/03/20 03:25:57;;;;;;;4.90;3.95;;;11.60;96.70;;;;;;5006553;28;20058;-86
2022/03/20 03:28:34;;;;;;;9.02;4.55;;;11.50;96.70;;;;;;5008434;28;20061;-86
2022/03/20 03:31:05;;;;;;;5.60;4.40;;;11.50;96.70;;;;;;5013528;28;20046;-85
2022/03/20 03:33:36;;;;;;;4.55;3.78;;;11.50;96.70;;;;;;5004168;28;20038;-85
2022/03/20 03:36:05;;;;;;;6.28;4.35;;;11.60;96.70;;;;;;5000021;28;20062;-85
2022/03/20 03:38:34;;;;;;;6.53;4.25;;;11.60;96.70;;;;;;4970032;28;20039;-85
2022/03/20 03:41:03;;;;;;;5.50;4.22;;;11.60;96.70;;;;;;4967915;28;20145;-84
2022/03/20 03:43:31;;;;;;;7.25;4.35;;;11.60;96.70;;;;;;5001123;28;20057;-85
2022/03/20 03:45:59;;;;;;;8.73;4.70;;;11.50;96.70;;;;;;5004496;28;20110;-85
2022/03/20 03:48:28;;;;;;;7.75;3.72;;;11.50;96.70;;;;;;4970751;28;20125;-86
2022/03/20 03:51:02;;;;;;;8.10;4.28;;;11.40;96.70;;;;;;4973901;28;20062;-81
2022/03/20 03:53:31;;;;;;;6.22;4.15;;;11.20;96.70;;;;;;4968506;28;20476;-85
2022/03/20 03:56:01;;;;;;;8.10;4.35;;;11.30;96.70;;;;;;4986225;28;20049;-85
2022/03/20 03:58:30;;;;;;;7.57;4.10;;;11.30;96.70;;;;;;5001403;28;20047;-86
2022/03/20 04:00:58;;;;;;;6.53;4.28;;;11.40;96.70;;;;;;4968124;28;20129;-86
2022/03/20 04:03:27;;;;;;;4.50;3.97;;;11.40;96.70;;;;;;4967723;28;20043;-87
2022/03/20 04:06:00;;;;;;;4.90;3.95;;;11.40;96.70;;;;;;4997226;28;20042;-86
2022/03/20 04:08:29;;;;;;;6.32;4.28;;;11.40;96.70;;;;;;4967314;28;20043;-85
2022/03/20 04:11:00;;;;;;;6.47;4.30;;;11.40;96.70;;;;;;4969365;28;20039;-85
2022/03/20 04:13:29;;;;;;;6.22;3.80;;;11.40;96.70;;;;;;4995409;28;20054;-86
2022/03/20 04:15:57;;;;;;;5.57;4.22;;;11.30;96.70;;;;;;4965764;28;20099;-85
2022/03/20 04:18:25;;;;;;;6.38;4.28;;;11.20;96.70;;;;;;5016307;28;20043;-84
2022/03/20 04:20:53;;;;;;;6.20;4.15;;;11.20;96.70;;;;;;4968274;28;20157;-86
2022/03/20 04:26:09;;;;;;;5.00;3.88;;;11.10;96.70;;;;;;4965598;28;20058;-86
2022/03/20 04:28:37;;;;;;;7.05;3.83;;;11.00;96.70;;;;;;4983501;28;20047;-86
2022/03/20 04:31:05;;;;;;;5.63;3.92;;;11.00;96.70;;;;;;4974006;28;20050;-86
2022/03/20 04:33:34;;;;;;;8.45;4.45;;;10.90;96.70;;;;;;5000466;28;20026;-86
2022/03/20 04:36:03;;;;;;;6.50;3.70;;;10.90;96.70;;;;;;4971766;28;20557;-86
2022/03/20 04:38:31;;;;;;;6.53;4.20;;;10.90;96.70;;;;;;4983836;28;20051;-85
2022/03/20 04:40:59;;;;;;;5.93;4.53;;;10.80;96.70;;;;;;4983587;28;20043;-85
2022/03/20 04:43:29;;;;;;;6.45;4.32;;;10.70;96.70;;;;;;4982534;28;20683;-86
2022/03/20 04:45:58;;;;;;;6.70;4.25;;;10.60;96.70;;;;;;4984857;28;20054;-85
2022/03/20 04:59:35;;;;;;;5.75;4.50;;;10.50;96.70;;;;;;4967288;28;20053;-85
2022/03/20 05:02:04;;;;;;;9.05;4.85;;;10.50;96.70;;;;;;5000119;28;20078;-86
2022/03/20 05:04:32;;;;;;;6.68;4.75;;;10.50;96.70;;;;;;4967467;28;20572;-85
2022/03/20 05:07:00;;;;;;;6.93;4.90;;;10.50;96.70;;;;;;5000373;28;20497;-86
2022/03/20 05:15:09;;;;;;;6.00;4.60;;;10.40;96.70;;;;;;4952499;28;20047;-85
2022/03/20 05:17:38;;;;;;;6.68;4.63;;;10.20;96.70;;;;;;4983218;28;20745;-86
2022/03/20 05:20:07;;;;;;;7.15;5.00;;;10.20;96.70;;;;;;4999064;28;20051;-86
2022/03/20 05:22:37;;;;;;;7.72;4.97;;;10.20;96.70;;;;;;5003147;28;20042;-86
2022/03/20 05:25:12;;;;;;;5.80;4.78;;;10.20;96.70;;;;;;4986042;28;20051;-85
2022/03/20 05:27:40;;;;;;;7.53;4.78;;;10.20;96.70;;;;;;4996713;28;20051;-86
2022/03/20 05:30:11;;;;;;;7.82;5.22;;;10.10;96.70;;;;;;4970702;28;20046;-85
2022/03/20 05:32:40;;;;;;;8.02;5.07;;;10.00;96.70;;;;;;4969605;28;20055;-86
2022/03/20 05:35:09;;;;;;;8.25;5.32;;;10.10;96.70;;;;;;5002401;28;20050;-85
2022/03/20 05:37:38;;;;;;;7.90;5.28;;;10.10;96.70;;;;;;5002838;28;20063;-86
2022/03/20 05:40:07;;;;;;;7.10;5.13;;;10.10;96.70;;;;;;5002589;28;20043;-86
2022/03/20 05:42:38;;;;;;;7.45;4.90;;;10.10;96.70;;;;;;5002732;28;20062;-85
2022/03/20 05:45:07;;;;;;;9.77;5.25;;;10.10;96.70;;;;;;4986527;28;20085;-86
2022/03/20 05:47:38;;;;;;;9.32;5.53;;;10.10;96.70;;;;;;5004127;28;20081;-85
2022/03/20 05:50:08;;;;;;;7.70;5.03;;;10.00;96.70;;;;;;5004830;28;20445;-85
2022/03/20 05:52:37;;;;;;;6.70;4.70;;;10.00;96.70;;;;;;4986100;28;20050;-86
2022/03/20 05:55:06;;;;;;;6.97;4.80;;;9.90;96.70;;;;;;4959968;28;20046;-85
2022/03/20 06:00:25;;;;;;;9.07;5.75;;;9.90;96.70;;;;;;4986200;28;20496;-86
2022/03/20 06:02:55;;;;;;;6.75;5.15;;;10.00;96.70;;;;;;4975675;28;20070;-85
2022/03/20 06:05:23;;;;;;;8.10;5.43;;;10.10;96.70;;;;;;4970035;28;20070;-84
2022/03/20 06:07:52;;;;;;;7.25;5.38;;;10.00;96.70;;;;;;4976091;28;20047;-85
2022/03/20 06:10:20;;;;;;;6.97;5.35;;;10.10;96.70;;;;;;4986090;28;20070;-85
2022/03/20 06:12:48;;;;;;;6.93;5.03;;;10.10;96.70;;;;;;5018575;28;20158;-86
2022/03/20 06:15:17;;;;;;;7.45;5.03;;;10.20;96.70;;;;;;4996917;28;20051;-85
2022/03/20 06:17:45;;;;;;;7.38;5.50;;;10.20;96.70;;;;;;4985843;28;20532;-86
2022/03/20 06:20:16;;;;;;;6.35;5.00;;;10.30;96.70;;;;;;4969754;28;20070;-85
2022/03/20 06:22:47;;;;;;;6.72;5.03;;;10.30;96.70;;;;;;5002383;28;20054;-85
2022/03/20 06:25:16;;;;;;;8.43;4.95;;;10.20;96.70;;;;;;4971609;28;20498;-86
2022/03/20 06:27:45;;;;;;;8.63;4.97;;;10.30;96.70;;;;;;4970565;28;20461;-84
2022/03/20 06:30:15;;;;;;;12.25;5.43;;;10.30;96.70;;;;;;4985709;28;20186;-86
2022/03/20 06:32:47;;;;;;;6.30;4.75;;;10.40;96.70;;;;;;4987447;28;20051;-84
2022/03/20 06:35:18;;;;;;;9.60;4.93;;;10.40;96.70;;;;;;4969990;28;20461;-86
2022/03/20 06:37:53;;;;;;;6.20;4.90;;;10.40;96.70;;;;;;5003799;28;20088;-86
2022/03/20 06:40:22;;;;;;;6.07;4.65;;;10.50;96.70;;;;;;4991276;28;20062;-86
2022/03/20 06:42:52;;;;;;;9.70;4.50;;;10.60;96.70;;;;;;4972396;28;20508;-86
2022/03/20 06:45:20;;;;;;;8.23;4.90;;;10.50;96.70;;;;;;4986935;28;20051;-85
2022/03/20 06:47:49;;;;;;;8.80;5.13;;;10.60;96.70;;;;;;4985113;28;20070;-86
2022/03/20 06:50:18;;;;;;;7.05;4.13;;;10.70;96.70;;;;;;5001885;28;20062;-86
2022/03/20 06:52:47;;;;;;;6.10;4.78;;;10.70;96.70;;;;;;5004808;28;20061;-85
2022/03/20 06:55:16;;;;;;;9.50;5.40;;;10.80;96.70;;;;;;5002265;28;20051;-85
2022/03/20 06:57:46;;;;;;;9.60;5.22;;;10.90;96.70;;;;;;4969629;28;20043;-81
2022/03/20 07:00:16;;;;;;;6.90;4.80;;;10.90;96.70;;;;;;5009769;28;20046;-82
2022/03/20 07:03:06;;;;;;;5.97;4.45;;;10.90;96.70;;;;;;4966782;28;20054;-82
2022/03/20 07:05:37;;;;;;;7.47;4.68;;;11.00;96.70;;;;;;4965331;28;20047;-82
2022/03/20 07:08:07;;;;;;;7.50;5.25;;;11.10;96.70;;;;;;4968522;28;20043;-82
2022/03/20 07:10:36;;;;;;;7.22;4.57;;;11.10;96.70;;;;;;4984872;28;20042;-82
2022/03/20 07:15:56;;;;;;;8.02;5.63;;;11.30;96.70;;;;;;4982372;28;20060;-81
2022/03/20 07:18:25;;;;;;;8.77;5.28;;;11.30;96.70;;;;;;4986041;28;20051;-81
2022/03/20 07:20:55;;;;;;;9.10;5.13;;;11.40;96.70;;;;;;4968718;28;20046;-82
2022/03/20 07:23:23;;;;;;;8.43;5.18;;;11.40;96.70;;;;;;4968895;28;20047;-81
2022/03/20 07:31:25;;;;;;;10.20;5.15;;;11.60;96.70;;;;;;4970120;28;20062;-82
2022/03/20 07:33:54;;;;;;;9.93;5.65;;;11.70;96.70;;;;;;4983939;28;20603;-84
2022/03/20 07:36:24;;;;;;;7.35;5.47;;;11.70;96.70;;;;;;4999707;28;20394;-81
2022/03/20 07:38:52;;;;;;;6.35;5.18;;;11.80;96.70;;;;;;4966604;28;20047;-86
2022/03/20 07:41:21;;;;;;;6.38;4.88;;;11.80;96.70;;;;;;4968209;28;20206;-88
2022/03/20 07:43:51;;;;;;;6.40;4.93;;;11.90;96.70;;;;;;4968556;28;20154;-87
2022/03/20 07:46:19;;;;;;;7.35;5.10;;;12.00;96.70;;;;;;4967696;28;20465;-87
2022/03/20 07:48:49;;;;;;;7.53;5.45;;;12.00;96.70;;;;;;5000727;28;20078;-84
2022/03/20 07:51:20;;;;;;;6.63;4.95;;;12.10;96.70;;;;;;4969765;28;20489;-85
2022/03/20 07:53:50;;;;;;;7.43;4.95;;;12.10;96.70;;;;;;4984500;28;20592;-84
2022/03/20 07:56:21;;;;;;;7.75;4.93;;;12.10;96.70;;;;;;4975358;28;20069;-87
2022/03/20 07:58:49;;;;;;;7.70;5.28;;;12.20;96.70;;;;;;4969024;28;20147;-89
2022/03/20 08:01:18;;;;;;;9.25;5.30;;;12.20;96.70;;;;;;5000811;28;20142;-86
2022/03/20 08:03:50;;;;;;;5.80;4.65;;;12.40;96.70;;;;;;4979331;28;20174;-90
2022/03/20 08:06:19;;;;;;;6.28;4.82;;;12.40;96.70;;;;;;5003035;28;20117;-86
2022/03/20 08:08:47;;;;;;;5.75;4.40;;;12.40;96.70;;;;;;4970119;28;20432;-87
2022/03/20 08:11:17;;;;;;;7.95;4.70;;;12.50;96.70;;;;;;4968659;28;20085;-85
2022/03/20 08:13:46;;;;;;;7.07;4.82;;;12.60;96.70;;;;;;4967251;28;20684;-83
2022/03/20 08:16:20;;;;;;;8.02;5.00;;;12.70;96.70;;;;;;4967572;28;20043;-84
2022/03/20 08:18:49;;;;;;;7.10;4.50;;;12.70;96.70;;;;;;4968390;28;20450;-82
2022/03/20 08:21:17;;;;;;;8.20;5.00;;;12.80;96.70;;;;;;4967631;28;20055;-82
2022/03/20 08:23:46;;;;;;;7.97;5.72;;;12.80;96.70;;;;;;5000111;28;20150;-83
2022/03/20 08:26:17;;;;;;;7.65;4.00;;;12.80;96.70;;;;;;4998635;28;20547;-81
2022/03/20 08:28:45;;;;;;;6.68;4.47;;;12.80;96.30;;;;;;4967675;28;20039;-79
2022/03/20 08:31:14;;;;;;;5.88;4.13;;;12.90;96.40;;;;;;5016539;28;20062;-80
2022/03/20 08:33:43;;;;;;;6.43;4.55;;;13.00;96.50;;;;;;4966782;28;20128;-81
2022/03/20 08:36:14;;;;;;;9.43;4.95;;;13.10;96.30;;;;;;4982961;28;20058;-81
2022/03/20 08:38:43;;;;;;;6.57;4.50;;;13.20;96.20;;;;;;4965417;28;20429;-80
2022/03/20 08:41:11;;;;;;;5.95;4.47;;;13.20;95.80;;;;;;4965436;28;20564;-82
2022/03/20 08:43:41;;;;;;;5.72;4.18;;;13.20;95.60;;;;;;4968148;28;20101;-82
2022/03/20 08:46:10;;;;;;;5.97;4.80;;;13.30;95.50;;;;;;4972568;28;20122;-82
2022/03/20 08:48:39;;;;;;;6.53;5.53;;;13.30;94.60;;;;;;4967829;28;20523;-82
2022/03/20 08:51:07;;;;;;;6.32;4.35;;;13.30;94.10;;;;;;4999195;28;20077;-82
2022/03/20 08:53:35;;;;;;;6.03;4.53;;;13.40;94.30;;;;;;4968394;28;20564;-82
2022/03/20 08:56:04;;;;;;;7.13;3.85;;;13.40;94.20;;;;;;4970895;28;20126;-80
2022/03/20 08:58:33;;;;;;;8.43;5.40;;;13.50;94.70;;;;;;4985788;28;20145;-82
2022/03/20 09:01:03;;;;;;;6.03;4.07;;;13.60;94.60;;;;;;5001172;28;20043;-79
2022/03/20 09:03:31;;;;;;;9.60;4.57;;;13.70;94.60;;;;;;5015915;28;20051;-82
2022/03/20 09:06:00;;;;;;;6.28;4.72;;;13.70;94.70;;;;;;4971827;28;20039;-83
2022/03/20 09:08:29;;;;;;;6.55;4.15;;;13.80;94.60;;;;;;4970495;28;20047;-82
2022/03/20 09:10:57;;;;;;;6.00;4.60;;;13.70;94.60;;;;;;4997736;28;20038;-85
2022/03/20 09:13:27;;;;;;;6.95;4.70;;;13.80;95.10;;;;;;4974444;28;20038;-84
2022/03/20 09:19:00;;;;;;;7.13;4.55;;;14.10;94.00;;;;;;4989948;28;20074;-82
2022/03/20 09:21:30;;;;;;;10.07;5.50;;;14.10;92.70;;;;;;4979679;28;20077;-82
2022/03/20 09:24:00;;;;;;;6.25;5.15;;;14.10;92.20;;;;;;5007237;28;20053;-80
2022/03/20 09:26:29;;;;;;;6.05;4.90;;;14.20;92.40;;;;;;4970324;28;20042;-82
2022/03/20 09:28:58;;;;;;;6.85;4.55;;;14.20;92.20;;;;;;5003597;28;20058;-82
2022/03/20 09:31:27;;;;;;;7.53;5.13;;;14.20;90.80;;;;;;4969986;28;20043;-82
2022/03/20 09:33:58;;;;;;;8.55;4.68;;;14.30;91.70;;;;;;4994720;28;20452;-82
2022/03/20 09:36:26;;;;;;;7.40;4.70;;;14.40;91.00;;;;;;5001086;28;20142;-81
2022/03/20 09:38:54;;;;;;;5.72;4.10;;;14.40;91.30;;;;;;4966770;28;20059;-81
2022/03/20 09:41:29;;;;;;;6.40;4.50;;;14.30;91.50;;;;;;5002137;28;20141;-81
2022/03/20 09:43:58;;;;;;;7.68;4.80;;;14.40;90.80;;;;;;4968208;28;20058;-82
2022/03/20 09:46:26;;;;;;;7.88;4.20;;;14.60;90.30;;;;;;4985656;28;20039;-84
2022/03/20 09:48:56;;;;;;;6.28;3.97;;;14.70;90.80;;;;;;4971535;28;20054;-84
2022/03/20 09:51:26;;;;;;;6.15;4.43;;;14.80;89.00;;;;;;4988031;28;20105;-84
2022/03/20 09:53:55;;;;;;;7.57;5.57;;;14.80;89.50;;;;;;4970214;28;20052;-85
2022/03/20 09:56:23;;;;;;;6.75;4.70;;;14.90;89.30;;;;;;5001954;28;20035;-85
2022/03/20 09:58:51;;;;;;;8.45;4.68;;;14.80;90.00;;;;;;5001837;28;20050;-85
2022/03/20 10:01:20;;;;;;;6.38;4.30;;;15.00;89.80;;;;;;4985997;28;20043;-85
2022/03/20 10:04:05;;;;;;;6.53;4.43;;;15.00;89.50;;;;;;4975016;28;20050;-85
2022/03/20 10:06:38;;;;;;;6.00;4.45;;;15.00;90.20;;;;;;4969946;28;20043;-85
2022/03/20 10:09:09;;;;;;;5.53;4.15;;;14.90;89.90;;;;;;5003486;28;20074;-85
2022/03/20 10:11:40;;;;;;;4.75;4.00;;;15.00;89.20;;;;;;5002684;28;20047;-85
2022/03/20 10:14:13;;;;;;;8.38;4.60;;;15.00;89.50;;;;;;4991753;28;20378;-84
2022/03/20 10:16:44;;;;;;;6.15;4.63;;;15.00;89.30;;;;;;4975284;28;20516;-86
2022/03/20 10:19:32;;;;;;;5.60;4.43;;;15.10;89.50;;;;;;5002409;28;20046;-84
2022/03/20 10:22:05;;;;;;;6.28;4.43;;;15.20;90.00;;;;;;5022110;28;20113;-85
2022/03/20 10:24:34;;;;;;;5.95;4.07;;;15.30;89.90;;;;;;5002645;28;20047;-84
2022/03/20 10:27:13;;;;;;;9.82;5.95;;;15.50;88.80;;;;;;4973037;28;20062;-85
2022/03/20 10:29:51;;;;;;;5.32;4.38;;;15.70;87.70;;;;;;5002142;28;20047;-84
2022/03/20 10:32:20;;;;;;;5.82;4.07;;;15.80;86.50;;;;;;5004685;28;20097;-86
2022/03/20 10:34:55;;;;;;;6.05;4.47;;;15.80;87.20;;;;;;5002613;28;20104;-84
2022/03/20 10:37:46;;;;;;;8.05;4.28;;;15.80;87.80;;;;;;4969761;28;20059;-83
2022/03/20 10:40:17;;;;;;;5.68;4.57;;;15.80;88.00;;;;;;5010258;28;20112;-85
2022/03/20 10:43:09;;;;;;;7.20;4.40;;;15.80;87.30;;;;;;5001854;28;20140;-85
2022/03/20 10:45:54;;;;;;;4.68;3.75;;;16.00;87.60;;;;;;4968767;28;20047;-85
2022/03/20 10:48:38;;;;;;;6.85;4.97;;;16.10;87.20;;;;;;4978325;28;20114;-86
2022/03/20 10:51:07;;;;;;;7.32;4.65;;;16.10;86.60;;;;;;4970957;28;20038;-85
2022/03/20 10:53:52;;;;;;;7.70;4.00;;;16.30;86.40;;;;;;4969722;28;20074;-87
2022/03/20 10:56:21;;;;;;;7.63;4.57;;;16.30;86.50;;;;;;4970394;28;20057;-85
2022/03/20 10:58:49;;;;;;;10.13;6.85;;;16.20;87.00;;;;;;4969174;28;20057;-87
2022/03/20 11:01:34;;;;;;;10.00;6.72;;;16.10;86.50;;;;;;4989978;28;20505;-85
2022/03/20 11:04:05;;;;;;;8.88;3.97;;;16.20;86.70;;;;;;4984244;28;20109;-85
2022/03/20 11:06:33;;;;;;;5.43;4.38;;;16.20;85.80;;;;;;5001349;28;20142;-86
2022/03/20 11:09:04;;;;;;;6.30;4.25;;;16.40;85.50;;;;;;4966106;28;20035;-86
2022/03/20 11:11:34;;;;;;;6.32;4.93;;;16.40;84.90;;;;;;5003390;28;20043;-86
2022/03/20 11:14:04;;;;;;;6.63;4.47;;;16.60;84.80;;;;;;4989491;28;20051;-86
2022/03/20 11:16:38;;;;;;;5.20;4.70;;;16.70;85.60;;;;;;5002614;28;20604;-86
2022/03/20 11:19:13;;;;;;;5.10;4.60;;;17.00;85.50;;;;;;4967000;28;20110;-85
2022/03/20 11:21:45;;;;;;;5.20;3.95;;;17.00;84.30;;;;;;5005933;28;20062;-86
2022/03/20 11:24:16;;;;;;;5.45;4.20;;;16.80;83.80;;;;;;5001496;28;20078;-86
2022/03/20 11:26:48;;;;;;;6.95;4.45;;;16.80;83.80;;;;;;4968586;28;20049;-87
2022/03/20 11:29:19;;;;;;;6.82;4.75;;;17.00;84.50;;;;;;4985599;28;20046;-86
2022/03/20 11:31:48;;;;;;;5.63;4.47;;;17.20;83.30;;;;;;4988886;28;20050;-85
2022/03/20 11:34:17;;;;;;;8.07;5.03;;;17.00;83.40;;;;;;4968495;28;20531;-86
2022/03/20 11:37:07;;;;;;;5.70;4.20;;;16.90;83.70;;;;;;5002121;28;20058;-85
2022/03/20 11:39:38;;;;;;;5.93;4.72;;;17.00;83.30;;;;;;5001181;28;20727;-88
2022/03/20 11:42:25;;;;;;;6.43;4.50;;;17.20;83.60;;;;;;4967397;28;20050;-87
2022/03/20 11:45:17;;;;;;;5.40;4.72;;;17.40;83.40;;;;;;4997575;28;20058;-83
2022/03/20 11:47:47;;;;;;;5.88;4.68;;;17.40;83.40;;;;;;4984929;28;20038;-84
2022/03/20 11:50:19;;;;;;;8.50;4.25;;;17.30;83.30;;;;;;4983493;28;20523;-84
2022/03/20 11:53:09;;;;;;;6.55;4.38;;;17.50;82.80;;;;;;4983313;28;20081;-87
2022/03/20 11:55:41;;;;;;;5.10;4.20;;;17.40;82.70;;;;;;4985052;28;20141;-84
2022/03/20 11:58:32;;;;;;;5.78;4.20;;;17.40;83.00;;;;;;4967720;28;20057;-83
2022/03/20 12:01:03;;;;;;;5.53;4.15;;;17.50;82.60;;;;;;4997031;28;20047;-84
2022/03/20 12:03:50;;;;;;;8.13;4.50;;;17.70;83.10;;;;;;4981823;28;20062;-84
2022/03/20 12:06:49;;;;;;;5.05;4.38;;;17.90;82.00;;;;;;4999473;28;20082;-84
2022/03/20 12:09:55;;;;;;;7.07;4.07;;;18.10;81.10;;;;;;5000266;28;20755;-83
2022/03/20 12:12:47;;;;;;;5.72;4.22;;;18.20;82.40;;;;;;4967282;28;20253;-83
2022/03/20 12:15:19;;;;;;;6.85;4.80;;;18.10;81.40;;;;;;4984185;28;20043;-84
2022/03/20 12:18:03;;;;;;;8.65;4.57;;;18.20;82.00;;;;;;4999618;28;20564;-84
2022/03/20 12:21:01;;;;;;;6.88;5.07;;;18.20;81.60;;;;;;4988534;28;20055;-82
2022/03/20 12:23:43;;;;;;;6.55;4.90;;;18.10;81.90;;;;;;4968641;28;20050;-89
2022/03/20 12:26:31;;;;;;;9.05;5.85;;;18.10;81.80;;;;;;4999779;28;20122;-87
2022/03/20 12:29:38;;;;;;;8.52;5.20;;;18.10;81.60;;;;;;4966882;28;20134;-83
2022/03/20 12:32:11;;;;;;;6.57;4.97;;;18.10;81.30;;;;;;4951601;28;20207;-84
2022/03/20 12:34:40;;;;;;;8.57;6.60;;;18.10;81.40;;;;;;4952351;28;20070;-88
2022/03/20 12:37:40;;;;;;;6.78;5.30;;;18.20;81.10;;;;;;4957499;28;20063;-88
2022/03/20 12:40:11;;;;;;;8.63;5.20;;;18.20;81.50;;;;;;4970030;28;20070;-88
2022/03/20 12:43:05;;;;;;;5.93;4.63;;;18.30;81.30;;;;;;4970200;28;20051;-87
2022/03/20 12:45:36;;;;;;;5.80;4.82;;;18.00;80.10;;;;;;4955286;28;20098;-87
2022/03/20 12:48:07;;;;;;;5.88;5.18;;;18.00;80.50;;;;;;4969301;28;20057;-88
2022/03/20 12:50:37;;;;;;;7.75;6.00;;;18.40;80.50;;;;;;4970045;28;20319;-88
2022/03/20 12:53:07;;;;;;;6.35;4.65;;;18.50;81.50;;;;;;4945531;28;20504;-84
2022/03/20 12:55:39;;;;;;;8.80;5.07;;;18.50;81.10;;;;;;4953366;28;20055;-84
2022/03/20 12:58:14;;;;;;;6.13;5.25;;;18.40;81.10;;;;;;4967406;28;20039;-85
2022/03/20 13:00:44;;;;;;;7.43;5.10;;;18.50;81.20;;;;;;4952095;28;20113;-84
2022/03/20 13:03:15;;;;;;;7.53;4.97;;;18.60;81.10;;;;;;4986815;28;20058;-83
2022/03/20 13:05:48;;;;;;;7.40;5.13;;;18.60;81.00;;;;;;4984021;28;20053;-85
2022/03/20 13:08:23;;;;;;;6.10;5.15;;;18.70;80.70;;;;;;4975868;28;20169;-85
2022/03/20 13:10:52;;;;;;;7.70;5.32;;;18.60;79.80;;;;;;4977383;28;20575;-86
2022/03/20 13:13:25;;;;;;;7.05;4.72;;;18.80;80.30;;;;;;4976370;28;20721;-86
2022/03/20 13:15:56;;;;;;;10.02;5.05;;;19.00;82.80;;;;;;4991693;28;20042;-84
2022/03/20 13:18:27;;;;;;;7.13;4.82;;;19.10;81.90;;;;;;5030908;28;20050;-86
2022/03/20 13:20:55;;;;;;;10.68;5.07;;;19.30;82.20;;;;;;4998152;28;20488;-86
2022/03/20 13:23:25;;;;;;;7.30;5.53;;;19.40;80.60;;;;;;4984458;28;20038;-88
2022/03/20 13:25:58;;;;;;;9.55;5.40;;;19.20;79.30;;;;;;4978281;28;20056;-88
2022/03/20 13:28:28;;;;;;;8.70;5.85;;;19.30;80.90;;;;;;5006397;28;20046;-83
2022/03/20 13:31:01;;;;;;;8.20;5.32;;;19.40;78.80;;;;;;4990880;28;20053;-86
2022/03/20 13:33:31;;;;;;;8.05;5.40;;;19.30;80.00;;;;;;5004542;28;20054;-84
2022/03/20 13:36:01;;;;;;;8.85;4.97;;;19.20;79.90;;;;;;4976700;28;20070;-86
2022/03/20 13:38:34;;;;;;;5.55;4.70;;;19.20;80.20;;;;;;4979352;28;20050;-87
2022/03/20 13:41:07;;;;;;;7.22;5.20;;;19.30;80.20;;;;;;4992766;28;20053;-87
2022/03/20 13:43:36;;;;;;;9.15;5.03;;;19.50;79.70;;;;;;4990866;28;20162;-86